Time;durP1;ratioP1;P1;durP2;ratioP2;P2;SDS_P1;SDS_P2;PMS_P1;PMS_P2;Temp;Humidity;BMP_temperature;BMP_pressure;BME280_temperature;BME280_humidity;BME280_pressure;Samples;Min_cycle;Max_cycle;Signal;HPM_P1;HPM_P2
2023/01/30 07:31:21;;;;;;;43.28;21.12;;;;;;;5.27;68.37;101165.23;1639196;83;21254;-61
2023/01/30 07:34:29;;;;;;;33.73;20.00;;;;;;;0.20;67.71;100569.11;1616105;85;21256;-60
2023/01/30 07:41:59;;;;;;;39.55;23.10;;;;;;;0.26;67.60;100556.09;1682768;81;21286;-61
2023/01/30 07:45:28;;;;;;;38.88;23.05;;;;;;;0.27;67.50;100567.22;1636696;84;21235;-61
2023/01/30 07:48:47;;;;;;;31.95;19.75;;;;;;;0.29;67.43;100546.92;1631042;82;22078;-60
2023/01/30 07:52:01;;;;;;;;;;;;;;;0.31;67.39;100545.87;1642821;83;21361;-60
2023/01/30 07:55:16;;;;;;;34.92;20.30;;;;;;;0.33;67.45;100542.59;1644021;84;20262;-60
2023/01/30 07:58:30;;;;;;;29.05;17.80;;;;;;;0.37;67.51;100539.17;1677856;81;21950;-60
2023/01/30 08:01:47;;;;;;;30.57;18.65;;;;;;;0.39;67.48;100532.73;1702071;81;21284;-61
2023/01/30 08:05:13;;;;;;;32.78;19.00;;;;;;;0.44;67.57;100526.54;1743435;79;21882;-60
2023/01/30 08:08:46;;;;;;;33.38;19.60;;;;;;;0.49;67.61;100524.86;1733480;81;21218;-61
2023/01/30 08:12:11;;;;;;;34.03;20.40;;;;;;;0.50;67.51;100518.02;1721046;80;21358;-59
2023/01/30 08:15:27;;;;;;;34.98;19.73;;;;;;;0.50;67.50;100511.29;1675984;82;21503;-60
2023/01/30 08:18:46;;;;;;;39.78;21.80;;;;;;;0.51;67.47;100508.95;1694665;80;21257;-60
2023/01/30 08:22:05;;;;;;;33.28;20.62;;;;;;;0.50;67.47;100505.91;1713295;80;21236;-61
2023/01/30 08:25:20;;;;;;;34.08;20.82;;;;;;;0.51;67.50;100508.95;1763809;80;21212;-61
2023/01/30 08:28:33;;;;;;;33.10;19.25;;;;;;;0.53;67.51;100502.12;1705094;82;21405;-60
2023/01/30 08:31:54;;;;;;;31.62;19.35;;;;;;;0.57;67.54;100508.52;1722653;80;21465;-61
2023/01/30 08:35:11;;;;;;;39.53;21.60;;;;;;;0.61;67.58;100497.92;1731153;79;21260;-60
2023/01/30 08:38:23;;;;;;;36.10;23.47;;;;;;;0.65;67.58;100492.67;1721829;80;21224;-59
2023/01/30 08:41:34;;;;;;;37.23;23.90;;;;;;;0.68;67.56;100487.05;1746847;79;21244;-60
2023/01/30 08:48:13;;;;;;;37.58;21.93;;;;;;;0.71;67.55;100473.88;1702708;81;21235;-60
2023/01/30 08:51:21;;;;;;;48.55;26.15;;;;;;;0.74;67.49;100479.03;1680533;81;21376;-61
2023/01/30 08:54:51;;;;;;;37.80;22.58;;;;;;;0.77;67.50;100478.33;1712513;80;21196;-59
2023/01/30 08:58:15;;;;;;;31.77;19.82;;;;;;;0.86;67.52;100468.69;1714290;79;21289;-61
2023/01/30 09:01:27;;;;;;;34.20;20.97;;;;;;;0.95;67.59;100469.39;1709919;81;21255;-60
2023/01/30 09:08:17;;;;;;;32.25;19.73;;;;;;;1.02;67.49;100460.72;1729281;81;21769;-59
2023/01/30 09:11:34;;;;;;;39.25;21.87;;;;;;;1.13;67.55;100462.61;1682997;80;21235;-60
2023/01/30 09:14:45;;;;;;;42.13;25.15;;;;;;;1.23;67.61;100448.34;1728956;80;21279;-60
2023/01/30 09:17:58;;;;;;;40.08;23.25;;;;;;;1.32;67.58;100442.25;1722972;80;21554;-61
2023/01/30 09:21:12;;;;;;;44.83;26.73;;;;;;;1.37;67.55;100433.80;1702289;82;21278;-61
2023/01/30 09:24:39;;;;;;;39.23;23.38;;;;;;;1.41;67.47;100419.97;1683359;81;22309;-62
2023/01/30 09:27:48;;;;;;;44.60;25.50;;;;;;;1.45;67.47;100416.08;1756081;79;21234;-62
2023/01/30 09:30:59;;;;;;;56.20;33.55;;;;;;;1.53;67.53;100408.26;1729501;81;21200;-62
2023/01/30 09:34:06;;;;;;;69.95;40.45;;;;;;;1.62;67.53;100403.97;1717684;80;21228;-60
2023/01/30 09:37:24;;;;;;;53.50;32.23;;;;;;;1.69;67.55;100400.31;1724539;79;21271;-60
2023/01/30 09:40:38;;;;;;;53.13;31.07;;;;;;;1.75;67.58;100393.08;1652597;83;21909;-60
2023/01/30 09:44:12;;;;;;;40.75;22.95;;;;;;;1.78;67.46;100388.78;1695326;81;21231;-60
2023/01/30 09:47:47;;;;;;;55.70;31.23;;;;;;;1.80;67.41;100388.19;1725579;81;21550;-62
2023/01/30 09:51:38;;;;;;;56.25;33.30;;;;;;;1.83;67.46;100375.80;1709194;80;21271;-61
2023/01/30 09:54:53;;;;;;;37.28;22.05;;;;;;;1.88;67.45;100374.47;1710786;81;21217;-60
2023/01/30 09:58:00;;;;;;;40.40;22.15;;;;;;;1.85;67.42;100362.58;1711973;80;21248;-59
2023/01/30 10:01:13;;;;;;;42.65;19.90;;;;;;;1.81;67.39;100365.64;1721541;80;22472;-61
2023/01/30 10:04:43;;;;;;;42.83;21.90;;;;;;;1.71;67.25;100357.89;1726147;80;21840;-61
2023/01/30 10:08:06;;;;;;;41.42;22.22;;;;;;;1.61;67.29;100357.75;1721366;80;21356;-56
2023/01/30 10:11:32;;;;;;;46.35;23.85;;;;;;;1.59;67.38;100348.08;1690900;80;21228;-54
2023/01/30 10:15:02;;;;;;;37.80;20.43;;;;;;;1.57;67.30;100358.11;1709743;80;21672;-56
2023/01/30 10:19:00;;;;;;;40.30;22.98;;;;;;;1.50;67.28;100347.81;1686282;82;21268;-57
2023/01/30 10:22:52;;;;;;;40.45;21.60;;;;;;;1.42;67.29;100340.80;1717880;78;21377;-56
2023/01/30 10:26:12;;;;;;;34.03;21.10;;;;;;;1.34;67.29;100335.63;1702377;80;21290;-57
2023/01/30 10:29:33;;;;;;;36.10;20.68;;;;;;;1.31;67.46;100335.86;1719894;80;21238;-56
2023/01/30 10:33:10;;;;;;;33.23;19.32;;;;;;;1.28;67.47;100318.58;1715439;81;21280;-57
2023/01/30 10:36:49;;;;;;;28.20;16.90;;;;;;;1.20;67.49;100315.14;1715130;79;21286;-58
2023/01/30 10:40:42;;;;;;;26.95;16.50;;;;;;;1.14;67.53;100319.63;1715158;79;21859;-56
2023/01/30 10:44:06;;;;;;;26.05;14.00;;;;;;;1.10;67.52;100311.91;1733300;80;21310;-57
2023/01/30 10:47:32;;;;;;;27.20;14.83;;;;;;;1.01;67.42;100315.31;1702510;81;21228;-57
2023/01/30 10:55:26;;;;;;;45.28;23.15;;;;;;;0.87;67.41;100294.80;1686860;81;21364;-57
2023/01/30 10:58:46;;;;;;;28.87;17.35;;;;;;;0.84;67.37;100281.56;1721034;80;21292;-58
2023/01/30 11:02:12;;;;;;;26.27;15.93;;;;;;;0.81;67.38;100283.66;1684808;82;21236;-56
2023/01/30 11:08:55;;;;;;;25.32;13.08;;;;;;;0.88;67.47;100263.33;1724698;80;21496;-55
2023/01/30 11:12:07;;;;;;;21.33;12.10;;;;;;;0.93;67.45;100271.45;1729271;80;21283;-56
2023/01/30 11:15:16;;;;;;;21.15;12.05;;;;;;;0.88;67.29;100256.11;1714491;79;21612;-54
2023/01/30 11:18:28;;;;;;;18.15;11.00;;;;;;;0.85;67.26;100244.71;1708554;81;21295;-55
2023/01/30 11:21:46;;;;;;;17.70;10.08;;;;;;;0.86;67.31;100249.98;1699263;81;21329;-55
2023/01/30 11:25:30;;;;;;;19.45;11.70;;;;;;;0.87;67.26;100243.60;1696564;81;21235;-54
2023/01/30 11:28:45;;;;;;;20.77;12.98;;;;;;;0.90;67.28;100245.22;1679486;81;21428;-57
2023/01/30 11:32:34;;;;;;;24.75;13.30;;;;;;;0.96;67.35;100240.22;1681774;80;21236;-56
2023/01/30 11:36:12;;;;;;;25.68;13.22;;;;;;;0.96;67.21;100248.78;1659108;82;21278;-56
2023/01/30 11:39:27;;;;;;;22.82;12.68;;;;;;;0.90;67.22;100236.66;1618111;84;21591;-56
2023/01/30 11:42:45;;;;;;;20.23;11.97;;;;;;;0.89;67.23;100230.87;1653613;81;21961;-56
2023/01/30 11:45:56;;;;;;;20.68;12.33;;;;;;;0.89;67.21;100227.31;1640972;82;21759;-57
2023/01/30 11:49:12;;;;;;;17.70;10.95;;;;;;;0.86;67.16;100227.08;1669024;82;21282;-58
2023/01/30 11:52:21;;;;;;;21.73;12.05;;;;;;;0.85;67.16;100218.64;1716260;80;21312;-57
2023/01/30 11:55:36;;;;;;;21.73;12.60;;;;;;;0.87;67.19;100206.39;1631638;81;21257;-54
2023/01/30 11:59:15;;;;;;;24.35;14.65;;;;;;;0.89;67.22;100207.98;1653581;82;21848;-55
2023/01/30 12:02:32;;;;;;;21.27;11.63;;;;;;;0.87;67.12;100191.06;1675883;80;21358;-54
2023/01/30 12:05:47;;;;;;;20.85;13.20;;;;;;;0.83;67.14;100200.38;1746288;78;21747;-56
2023/01/30 12:09:01;;;;;;;22.15;12.20;;;;;;;0.81;67.09;100194.75;1729781;79;21278;-54
2023/01/30 12:12:42;;;;;;;22.87;12.82;;;;;;;0.78;67.09;100186.88;1691119;82;21344;-54
2023/01/30 12:15:53;;;;;;;23.52;13.95;;;;;;;0.73;67.09;100192.63;1668134;82;21831;-53
2023/01/30 12:19:27;;;;;;;24.47;14.33;;;;;;;0.70;67.10;100183.44;1656378;83;21837;-56
2023/01/30 12:23:15;;;;;;;25.97;15.80;;;;;;;0.72;67.15;100183.32;1639824;83;21763;-54
2023/01/30 12:26:45;;;;;;;26.15;15.90;;;;;;;0.73;67.15;100186.41;1648658;82;21266;-55
2023/01/30 12:30:18;;;;;;;24.85;15.32;;;;;;;0.73;67.13;100180.50;1691748;82;21254;-54
2023/01/30 12:33:46;;;;;;;23.60;13.90;;;;;;;0.77;67.19;100173.92;1704985;80;21274;-54
2023/01/30 12:37:52;;;;;;;21.70;14.10;;;;;;;0.77;67.17;100169.88;1745444;79;21219;-56
2023/01/30 12:41:55;;;;;;;26.12;15.48;;;;;;;0.70;67.05;100176.70;1746765;80;21266;-54
2023/01/30 12:45:31;;;;;;;22.82;12.90;;;;;;;0.68;67.01;100177.81;1750021;79;21296;-54
2023/01/30 12:49:12;;;;;;;22.37;14.15;;;;;;;0.65;66.97;100178.06;1757309;77;21260;-55
2023/01/30 12:52:56;;;;;;;19.37;12.43;;;;;;;0.64;67.01;100174.50;1725201;79;21319;-54
2023/01/30 12:56:28;;;;;;;20.45;12.95;;;;;;;0.66;66.96;100174.38;1695306;80;21272;-55
2023/01/30 13:00:13;;;;;;;19.55;12.40;;;;;;;0.60;66.96;100166.30;1694793;79;21231;-54
2023/01/30 13:03:53;;;;;;;18.67;12.33;;;;;;;0.52;66.83;100170.06;1654105;82;21298;-53
2023/01/30 13:07:41;;;;;;;21.55;13.22;;;;;;;0.46;66.83;100162.44;1695109;80;21823;-55
2023/01/30 13:11:13;;;;;;;26.42;12.63;;;;;;;0.43;66.91;100159.15;1702335;81;21236;-56
2023/01/30 13:14:39;;;;;;;22.62;13.32;;;;;;;0.41;66.87;100160.61;1727875;79;21236;-58
2023/01/30 13:18:36;;;;;;;27.70;16.00;;;;;;;0.39;66.88;100154.95;1699291;80;21291;-56
2023/01/30 13:22:14;;;;;;;23.98;13.95;;;;;;;0.33;66.81;100156.30;1673203;81;21285;-60
2023/01/30 13:25:46;;;;;;;23.07;13.55;;;;;;;0.31;66.81;100151.98;1726783;79;21260;-57
2023/01/30 13:29:02;;;;;;;22.42;13.00;;;;;;;0.32;66.87;100142.96;1723195;81;21195;-56
2023/01/30 13:32:12;;;;;;;23.25;13.40;;;;;;;0.39;66.94;100148.23;1711236;80;21220;-56
2023/01/30 13:35:39;;;;;;;21.05;12.75;;;;;;;0.46;66.95;100149.48;1730695;81;21279;-57
2023/01/30 13:39:15;;;;;;;22.82;13.93;;;;;;;0.52;66.99;100140.45;1741312;79;21302;-54
2023/01/30 13:42:52;;;;;;;22.25;12.53;;;;;;;0.55;66.89;100139.34;1709111;80;21219;-56
2023/01/30 13:46:11;;;;;;;16.80;10.60;;;;;;;0.61;66.93;100143.77;1719582;80;21201;-54
2023/01/30 13:49:37;;;;;;;21.37;12.30;;;;;;;0.63;66.88;100137.78;1737122;79;21260;-54
2023/01/30 13:53:16;;;;;;;22.22;12.13;;;;;;;0.63;66.83;100132.39;1750755;79;21199;-54
2023/01/30 13:56:57;;;;;;;19.80;12.23;;;;;;;0.64;66.82;100123.33;1750783;79;21295;-55
2023/01/30 14:00:37;;;;;;;17.65;11.85;;;;;;;0.69;66.84;100127.00;1732004;79;21220;-53
2023/01/30 14:03:51;;;;;;;20.70;12.37;;;;;;;0.71;66.81;100121.88;1716626;79;21226;-55
2023/01/30 14:07:05;;;;;;;24.18;13.80;;;;;;;0.72;66.77;100122.23;1740339;79;21757;-54
2023/01/30 14:10:28;;;;;;;26.35;15.83;;;;;;;0.68;66.66;100118.05;1725830;79;21416;-54
2023/01/30 14:13:50;;;;;;;19.77;12.05;;;;;;;0.66;66.64;100120.03;1719507;80;21550;-55
2023/01/30 14:17:22;;;;;;;20.08;13.15;;;;;;;0.65;66.60;100123.69;1681598;79;21547;-55
2023/01/30 14:20:52;;;;;;;26.60;14.98;;;;;;;0.63;66.55;100128.84;1720483;80;22559;-54
2023/01/30 14:24:08;;;;;;;25.60;14.68;;;;;;;0.62;66.56;100119.05;1713537;79;21224;-55
2023/01/30 14:27:33;;;;;;;24.57;13.20;;;;;;;0.63;66.54;100124.80;1739018;79;21775;-54
2023/01/30 14:31:05;;;;;;;21.42;12.40;;;;;;;0.56;66.38;100120.84;1718551;81;21382;-54
2023/01/30 14:34:18;;;;;;;18.77;10.88;;;;;;;0.47;66.34;100121.09;1724486;79;21895;-57
2023/01/30 14:37:49;;;;;;;20.02;11.53;;;;;;;0.42;66.30;100113.86;1714096;80;21791;-57
2023/01/30 14:41:12;;;;;;;19.92;11.85;;;;;;;0.33;66.25;100119.96;1715485;80;22127;-57
2023/01/30 14:44:44;;;;;;;20.52;12.40;;;;;;;0.29;66.26;100117.11;1693732;80;21946;-57
2023/01/30 14:47:59;;;;;;;18.82;11.53;;;;;;;0.28;66.34;100115.89;1687240;82;21508;-57
2023/01/30 14:51:33;;;;;;;19.95;12.40;;;;;;;0.34;66.44;100108.68;1692026;79;21788;-56
2023/01/30 14:55:10;;;;;;;19.90;11.88;;;;;;;0.40;66.44;100114.97;1717203;79;21211;-58
2023/01/30 14:59:21;;;;;;;18.20;11.88;;;;;;;0.43;66.45;100107.48;1668540;81;21300;-57
2023/01/30 15:03:26;;;;;;;19.55;12.90;;;;;;;0.44;66.38;100109.22;1699464;81;21235;-56
2023/01/30 15:07:52;;;;;;;27.00;13.88;;;;;;;0.43;66.33;100102.09;1729168;79;21301;-56
2023/01/30 15:11:30;;;;;;;22.82;14.05;;;;;;;0.43;66.30;100102.09;1737707;80;21247;-56
2023/01/30 15:15:00;;;;;;;30.52;15.90;;;;;;;0.47;66.35;100094.17;1712981;79;21238;-55
2023/01/30 15:18:50;;;;;;;23.15;14.30;;;;;;;0.52;66.39;100086.59;1729349;79;21764;-59
2023/01/30 15:22:08;;;;;;;29.00;16.37;;;;;;;0.56;66.29;100087.19;1730106;79;21208;-58
2023/01/30 15:25:29;;;;;;;25.48;15.90;;;;;;;0.61;66.30;100089.04;1724611;80;21216;-57
2023/01/30 15:28:55;;;;;;;31.02;19.10;;;;;;;0.64;66.23;100080.72;1724292;80;21263;-57
2023/01/30 15:32:31;;;;;;;32.67;18.82;;;;;;;0.64;66.24;100078.89;1672038;81;21264;-57
2023/01/30 15:35:41;;;;;;;27.62;16.45;;;;;;;0.69;66.25;100084.77;1702859;79;21242;-57
2023/01/30 15:38:55;;;;;;;30.00;17.82;;;;;;;0.72;66.13;100082.31;1715063;80;21288;-57
2023/01/30 15:42:07;;;;;;;25.80;16.62;;;;;;;0.69;66.07;100078.52;1678375;82;21243;-57
2023/01/30 15:45:40;;;;;;;29.00;17.73;;;;;;;0.71;66.07;100078.79;1732356;79;21998;-57
2023/01/30 15:49:16;;;;;;;24.45;15.43;;;;;;;0.76;66.05;100077.07;1711445;79;21782;-57
2023/01/30 15:52:55;;;;;;;30.82;15.90;;;;;;;0.80;66.00;100075.35;1743782;80;21264;-59
2023/01/30 15:56:03;;;;;;;26.75;15.50;;;;;;;0.77;65.97;100068.00;1705875;79;21203;-57
2023/01/30 15:59:17;;;;;;;27.00;14.53;;;;;;;0.77;65.99;100070.22;1740930;80;21870;-57
2023/01/30 16:02:42;;;;;;;33.67;18.12;;;;;;;0.77;65.98;100070.22;1735026;79;21871;-59
2023/01/30 16:06:02;;;;;;;28.20;15.18;;;;;;;0.79;65.90;100072.30;1699166;80;21300;-59
2023/01/30 16:09:39;;;;;;;25.92;15.55;;;;;;;0.74;65.79;100076.33;1710357;80;21267;-58
2023/01/30 16:13:14;;;;;;;24.80;15.45;;;;;;;0.68;65.76;100073.62;1697335;82;21259;-58
2023/01/30 16:16:39;;;;;;;21.33;13.22;;;;;;;0.61;65.71;100067.02;1709574;82;21389;-57
2023/01/30 16:19:51;;;;;;;20.37;12.93;;;;;;;0.58;65.65;100078.03;1685064;81;21259;-58
2023/01/30 16:23:02;;;;;;;23.45;13.53;;;;;;;0.56;65.73;100078.63;1709343;82;21252;-57
2023/01/30 16:26:20;;;;;;;20.40;12.97;;;;;;;0.56;65.68;100073.72;1689964;82;21526;-57
2023/01/30 16:29:37;;;;;;;36.28;20.30;;;;;;;0.51;65.64;100067.36;1655921;81;22519;-58
2023/01/30 16:32:49;;;;;;;23.87;14.98;;;;;;;0.48;65.62;100072.99;1692728;82;21196;-57
2023/01/30 16:36:02;;;;;;;18.75;12.43;;;;;;;0.48;65.66;100069.42;1695321;81;21910;-57
2023/01/30 16:39:33;;;;;;;23.80;14.93;;;;;;;0.49;65.59;100063.92;1675826;81;21296;-56
2023/01/30 16:43:04;;;;;;;26.82;15.38;;;;;;;0.48;65.59;100058.66;1700392;81;21621;-58
2023/01/30 16:47:08;;;;;;;30.55;15.98;;;;;;;0.49;65.60;100066.61;1711232;81;21243;-58
2023/01/30 16:50:26;;;;;;;25.37;13.95;;;;;;;0.52;65.59;100056.98;1726126;79;21252;-58
2023/01/30 16:53:39;;;;;;;24.15;15.43;;;;;;;0.54;65.59;100062.24;1648751;81;21247;-57
2023/01/30 16:56:54;;;;;;;22.77;14.03;;;;;;;0.53;65.51;100060.50;1682035;81;21319;-58
2023/01/30 17:00:01;;;;;;;26.12;15.10;;;;;;;0.48;65.51;100055.48;1714240;81;21415;-58
2023/01/30 17:03:16;;;;;;;23.22;14.60;;;;;;;0.48;65.52;100055.48;1738808;79;21209;-58
2023/01/30 17:06:34;;;;;;;25.02;14.18;;;;;;;0.50;65.50;100063.45;1726279;80;21303;-57
2023/01/30 17:09:52;;;;;;;19.73;12.88;;;;;;;0.46;65.45;100053.40;1716343;79;21328;-58
2023/01/30 17:13:01;;;;;;;22.15;14.20;;;;;;;0.41;65.38;100044.85;1742778;80;21243;-58
2023/01/30 17:16:32;;;;;;;23.00;14.80;;;;;;;0.35;65.34;100043.13;1732420;79;21915;-57
2023/01/30 17:19:47;;;;;;;21.30;14.00;;;;;;;0.33;65.40;100047.77;1738132;80;21296;-57
2023/01/30 17:23:12;;;;;;;28.73;16.05;;;;;;;0.30;65.30;100039.45;1729562;79;21835;-57
2023/01/30 17:26:25;;;;;;;21.17;14.47;;;;;;;0.23;65.31;100046.27;1724378;80;21399;-58
2023/01/30 17:29:46;;;;;;;23.87;16.20;;;;;;;0.22;65.34;100044.58;1732373;79;21332;-58
2023/01/30 17:33:02;;;;;;;23.87;15.38;;;;;;;0.19;65.30;100043.95;1735858;79;21882;-59
2023/01/30 17:36:11;;;;;;;21.68;14.70;;;;;;;0.11;65.25;100032.44;1653978;82;21296;-59
2023/01/30 17:39:21;;;;;;;23.75;15.10;;;;;;;0.06;65.23;100037.31;1724650;79;21760;-58
2023/01/30 17:42:38;;;;;;;24.85;16.42;;;;;;;0.02;65.22;100029.09;1684028;81;21469;-60
2023/01/30 17:45:46;;;;;;;23.98;16.75;;;;;;;0.00;65.25;100031.91;1718633;80;21290;-57
2023/01/30 17:48:57;;;;;;;23.65;15.93;;;;;;;-0.01;65.27;100026.64;1725299;78;21208;-58
2023/01/30 17:52:03;;;;;;;29.95;16.80;;;;;;;0.01;65.33;100024.70;1722831;79;21456;-58
2023/01/30 17:55:15;;;;;;;28.10;17.00;;;;;;;0.06;65.37;100029.72;1729749;79;21780;-59
2023/01/30 17:58:25;;;;;;;28.05;18.48;;;;;;;0.10;65.38;100014.56;1718045;80;21343;-58
2023/01/30 18:01:36;;;;;;;28.05;17.82;;;;;;;0.13;65.31;100008.94;1734821;79;21377;-59
2023/01/30 18:04:45;;;;;;;32.73;20.10;;;;;;;0.11;65.27;100010.05;1718967;81;21279;-58
2023/01/30 18:08:01;;;;;;;30.00;19.40;;;;;;;0.09;65.21;100012.86;1739581;78;21366;-57
2023/01/30 18:11:10;;;;;;;29.87;19.05;;;;;;;0.05;65.15;99995.73;1735791;79;21206;-58
2023/01/30 18:14:21;;;;;;;28.30;18.30;;;;;;;0.07;65.24;100000.48;1730505;79;21718;-57
2023/01/30 18:17:37;;;;;;;30.12;18.95;;;;;;;0.07;65.19;99998.66;1741799;77;21248;-57
2023/01/30 18:20:50;;;;;;;29.80;18.40;;;;;;;0.08;65.19;100000.88;1728266;80;21294;-57
2023/01/30 18:24:01;;;;;;;27.90;18.07;;;;;;;0.10;65.17;99997.55;1696871;79;21278;-59
2023/01/30 18:27:12;;;;;;;29.42;17.60;;;;;;;0.10;65.20;100005.63;1689394;79;21242;-60
2023/01/30 18:30:24;;;;;;;31.50;20.08;;;;;;;0.11;65.21;100006.87;1737839;79;21213;-58
2023/01/30 18:33:39;;;;;;;27.17;18.65;;;;;;;0.12;65.19;100003.20;1728865;79;21212;-57
2023/01/30 18:36:50;;;;;;;27.82;17.82;;;;;;;0.13;65.14;100005.41;1713462;79;21232;-57
2023/01/30 18:40:01;;;;;;;28.10;19.10;;;;;;;0.11;65.12;100006.01;1717348;80;21261;-56
2023/01/30 18:43:14;;;;;;;33.57;21.57;;;;;;;0.10;65.11;100004.27;1669632;80;21768;-58
2023/01/30 18:46:33;;;;;;;32.93;21.70;;;;;;;0.09;65.14;99996.71;1707928;80;21331;-57
2023/01/30 18:49:47;;;;;;;27.22;16.40;;;;;;;0.12;65.11;100007.23;1717855;79;21421;-57
2023/01/30 18:52:58;;;;;;;26.00;17.00;;;;;;;0.10;65.11;99997.55;1723885;80;21300;-58
2023/01/30 18:56:17;;;;;;;22.55;15.10;;;;;;;0.09;64.99;99994.02;1697992;80;21357;-56
2023/01/30 18:59:33;;;;;;;25.50;15.72;;;;;;;0.00;64.94;99996.09;1717529;80;21333;-57
2023/01/30 19:02:48;;;;;;;23.83;15.63;;;;;;;-0.01;65.01;99995.70;1723800;79;21693;-58
2023/01/30 19:05:59;;;;;;;22.82;13.88;;;;;;;0.02;65.00;99993.28;1721283;81;21236;-59
2023/01/30 19:09:16;;;;;;;21.45;12.65;;;;;;;0.00;65.02;99992.06;1684326;83;21212;-57
2023/01/30 19:16:02;;;;;;;24.70;13.48;;;;;;;0.00;65.01;100002.31;1714603;80;21429;-58
2023/01/30 19:19:14;;;;;;;28.83;18.67;;;;;;;0.05;65.07;99990.35;1683273;80;21353;-57
2023/01/30 19:22:24;;;;;;;25.55;16.40;;;;;;;0.10;65.10;99982.75;1721994;81;21232;-57
2023/01/30 19:25:38;;;;;;;22.95;14.18;;;;;;;0.12;65.06;99988.40;1727945;80;21344;-58
2023/01/30 19:28:52;;;;;;;25.62;15.88;;;;;;;0.13;64.99;99987.92;1690445;81;21242;-57
2023/01/30 19:32:14;;;;;;;20.80;12.82;;;;;;;0.11;64.96;99986.70;1703340;81;21398;-58
2023/01/30 19:35:28;;;;;;;21.77;13.43;;;;;;;0.11;64.97;99992.08;1686819;80;21221;-58
2023/01/30 19:38:47;;;;;;;24.02;13.55;;;;;;;0.13;64.97;99994.14;1684888;81;21268;-57
2023/01/30 19:42:01;;;;;;;23.30;13.50;;;;;;;0.14;64.97;99999.05;1714716;80;21323;-58
2023/01/30 19:45:19;;;;;;;17.30;11.30;;;;;;;0.09;64.83;99998.06;1723872;81;21479;-58
2023/01/30 19:48:36;;;;;;;23.92;13.95;;;;;;;0.03;64.81;99983.75;1719886;81;21418;-58
2023/01/30 19:51:55;;;;;;;23.55;13.90;;;;;;;0.02;64.87;99987.91;1694586;80;21438;-57
2023/01/30 19:55:10;;;;;;;24.57;13.55;;;;;;;0.06;64.93;99993.40;1712761;78;21204;-58
2023/01/30 19:58:28;;;;;;;20.57;12.75;;;;;;;0.08;64.92;99992.29;1716684;80;21951;-58
2023/01/30 20:01:39;;;;;;;21.85;13.90;;;;;;;0.07;64.86;99998.66;1723635;79;21718;-58
2023/01/30 20:04:50;;;;;;;21.23;13.78;;;;;;;0.05;64.78;99989.00;1730883;79;21227;-58
2023/01/30 20:08:03;;;;;;;24.27;14.43;;;;;;;0.02;64.81;99989.25;1717179;80;21756;-56
2023/01/30 20:11:21;;;;;;;22.25;14.03;;;;;;;0.05;64.84;99981.77;1685557;82;21271;-57
2023/01/30 20:14:53;;;;;;;23.45;14.05;;;;;;;0.10;64.85;99973.33;1723613;80;21275;-57
2023/01/30 20:18:09;;;;;;;23.30;14.23;;;;;;;0.12;64.88;99978.98;1714916;79;21287;-58
2023/01/30 20:21:30;;;;;;;26.40;15.65;;;;;;;0.11;64.80;99977.28;1718676;78;21231;-58
2023/01/30 20:24:46;;;;;;;23.02;14.38;;;;;;;0.08;64.76;99978.84;1730142;80;21703;-57
2023/01/30 20:28:01;;;;;;;24.27;13.55;;;;;;;0.11;64.81;99975.06;1725147;79;21393;-57
2023/01/30 20:31:20;;;;;;;25.85;15.32;;;;;;;0.08;64.74;99968.59;1736286;79;21278;-57
2023/01/30 20:34:30;;;;;;;26.57;15.48;;;;;;;0.06;64.73;99975.91;1694176;81;21271;-58
2023/01/30 20:37:42;;;;;;;43.00;26.55;;;;;;;0.00;64.67;99986.67;1697866;79;21282;-57
2023/01/30 20:40:56;;;;;;;26.42;16.37;;;;;;;-0.03;64.68;99981.50;1708522;81;21236;-57
2023/01/30 20:44:07;;;;;;;25.55;15.53;;;;;;;-0.01;64.74;99987.16;1725778;79;21327;-58
2023/01/30 20:47:16;;;;;;;28.65;16.90;;;;;;;0.01;64.78;99977.62;1714172;80;21247;-58
2023/01/30 20:50:26;;;;;;;24.55;14.83;;;;;;;0.05;64.81;99981.77;1742843;79;23039;-58
2023/01/30 20:53:38;;;;;;;22.27;13.83;;;;;;;0.08;64.81;99984.73;1690398;80;21414;-58
2023/01/30 20:56:50;;;;;;;29.12;16.17;;;;;;;0.13;64.87;99984.72;1701486;80;21354;-57
2023/01/30 20:59:59;;;;;;;25.92;15.72;;;;;;;0.18;64.85;99975.80;1734922;79;21909;-59
2023/01/30 21:03:09;;;;;;;25.30;14.47;;;;;;;0.20;64.83;99969.82;1742480;79;21361;-58
2023/01/30 21:06:17;;;;;;;31.52;17.42;;;;;;;0.22;64.76;99967.88;1700106;79;21223;-58
2023/01/30 21:09:29;;;;;;;25.97;15.45;;;;;;;0.21;64.72;99967.48;1741198;79;21232;-56
2023/01/30 21:12:40;;;;;;;28.35;16.52;;;;;;;0.22;64.72;99964.31;1735131;81;21254;-57
2023/01/30 21:15:56;;;;;;;27.73;16.42;;;;;;;0.19;64.68;99965.91;1733149;80;21362;-58
2023/01/30 21:19:09;;;;;;;27.13;15.43;;;;;;;0.18;64.73;99966.38;1706813;81;21337;-57
2023/01/30 21:22:18;;;;;;;27.20;16.32;;;;;;;0.19;64.74;99966.73;1747844;79;21199;-57
2023/01/30 21:25:28;;;;;;;26.97;16.05;;;;;;;0.20;64.72;99960.41;1728170;81;21207;-56
2023/01/30 21:28:41;;;;;;;26.75;15.65;;;;;;;0.22;64.74;99955.77;1710942;79;22601;-57
2023/01/30 21:31:57;;;;;;;28.25;16.10;;;;;;;0.26;64.71;99953.18;1689340;79;21353;-58
2023/01/30 21:35:14;;;;;;;25.37;15.72;;;;;;;0.28;64.63;99964.69;1735933;80;21219;-58
2023/01/30 21:45:30;;;;;;;31.75;18.40;;;;;;;0.36;64.68;99946.10;1741882;79;21855;-58
2023/01/30 21:48:45;;;;;;;27.05;16.73;;;;;;;0.36;64.62;99950.14;1693539;79;21312;-58
2023/01/30 21:51:58;;;;;;;27.60;16.25;;;;;;;0.34;64.58;99939.97;1705489;80;21770;-57
2023/01/30 21:55:12;;;;;;;32.23;16.90;;;;;;;0.35;64.57;99940.33;1682939;79;21291;-57
2023/01/30 21:58:23;;;;;;;30.72;16.97;;;;;;;0.36;64.58;99935.81;1696431;80;21959;-57
2023/01/30 22:01:33;;;;;;;28.98;16.37;;;;;;;0.38;64.64;99944.62;1707591;79;21742;-58
2023/01/30 22:04:49;;;;;;;28.47;16.35;;;;;;;0.41;64.47;99948.42;1712331;81;21915;-57
2023/01/30 22:07:59;;;;;;;27.62;16.80;;;;;;;0.33;64.39;99949.04;1715814;79;21222;-57
2023/01/30 22:11:22;;;;;;;26.12;16.25;;;;;;;0.33;64.44;99943.66;1690301;80;21326;-57
2023/01/30 22:14:34;;;;;;;28.42;17.27;;;;;;;0.34;64.41;99949.39;1723685;81;21327;-57
2023/01/30 22:17:41;;;;;;;26.73;15.65;;;;;;;0.26;64.31;99949.14;1710410;81;21248;-58
2023/01/30 22:20:54;;;;;;;30.75;16.37;;;;;;;0.22;64.35;99946.34;1732181;80;21731;-57
2023/01/30 22:24:02;;;;;;;26.02;14.55;;;;;;;0.22;64.32;99948.17;1736772;79;21679;-59
2023/01/30 22:27:15;;;;;;;30.88;15.32;;;;;;;0.18;64.33;99939.95;1729448;79;21268;-58
2023/01/30 22:30:24;;;;;;;21.82;13.72;;;;;;;0.16;64.30;99935.20;1718550;81;21200;-57
2023/01/30 22:33:39;;;;;;;25.40;15.45;;;;;;;0.09;64.27;99928.11;1708094;81;21764;-58
2023/01/30 22:36:58;;;;;;;26.97;15.35;;;;;;;0.07;64.34;99935.43;1737084;79;21749;-58
2023/01/30 22:40:11;;;;;;;25.62;15.83;;;;;;;0.08;64.36;99937.64;1741970;79;21231;-57
2023/01/30 22:43:23;;;;;;;;;;;;;;;0.07;64.37;99930.05;1688932;80;21779;-58
2023/01/30 22:46:43;;;;;;;26.60;15.00;;;;;;;0.08;64.46;99925.02;1731845;80;20202;-57
2023/01/30 22:49:51;;;;;;;29.35;16.32;;;;;;;0.12;64.49;99917.09;1725375;80;21224;-58
2023/01/30 22:53:04;;;;;;;24.50;15.75;;;;;;;0.14;64.45;99927.26;1699422;79;21954;-57
2023/01/30 22:56:16;;;;;;;27.62;16.48;;;;;;;0.16;64.41;99930.66;1697592;80;21264;-59
2023/01/30 22:59:26;;;;;;;26.20;16.05;;;;;;;0.18;64.44;99922.46;1722053;81;21204;-58
2023/01/30 23:02:36;;;;;;;25.00;15.05;;;;;;;0.23;64.46;99911.72;1728411;80;21220;-58
2023/01/30 23:05:47;;;;;;;27.17;16.42;;;;;;;0.28;64.44;99910.00;1711821;79;21181;-58
2023/01/30 23:08:58;;;;;;;25.85;16.32;;;;;;;0.29;64.41;99919.77;1731065;80;21323;-57
2023/01/30 23:15:45;;;;;;;25.30;15.85;;;;;;;0.33;64.33;99915.39;1728742;80;21226;-58
2023/01/30 23:18:54;;;;;;;23.32;14.25;;;;;;;0.33;64.26;99902.41;1697536;79;21857;-58
2023/01/30 23:22:05;;;;;;;24.90;15.20;;;;;;;0.35;64.27;99901.81;1735027;80;21310;-58
2023/01/30 23:25:18;;;;;;;24.70;15.18;;;;;;;0.37;64.25;99903.86;1705144;81;21271;-57
2023/01/30 23:28:34;;;;;;;25.65;15.68;;;;;;;0.40;64.26;99897.75;1729004;79;21393;-57